sensor_id;sensor_type;location;lat;lon;timestamp;P1;durP1;ratioP1;P2;durP2;ratioP2
65375;SDS011;51976;47.332;9.404;2023-06-19T00:02:25;4.00;;;3.40;;
65375;SDS011;51976;47.332;9.404;2023-06-19T00:04:50;4.40;;;3.72;;
65375;SDS011;51976;47.332;9.404;2023-06-19T00:07:16;4.68;;;3.90;;
65375;SDS011;51976;47.332;9.404;2023-06-19T00:09:41;5.85;;;3.70;;
65375;SDS011;51976;47.332;9.404;2023-06-19T00:12:07;4.00;;;3.42;;
65375;SDS011;51976;47.332;9.404;2023-06-19T00:14:32;5.55;;;4.10;;
65375;SDS011;51976;47.332;9.404;2023-06-19T00:17:00;4.65;;;3.70;;
65375;SDS011;51976;47.332;9.404;2023-06-19T00:19:26;4.43;;;3.85;;
65375;SDS011;51976;47.332;9.404;2023-06-19T00:21:51;4.22;;;3.83;;
65375;SDS011;51976;47.332;9.404;2023-06-19T00:24:22;4.15;;;3.70;;
65375;SDS011;51976;47.332;9.404;2023-06-19T00:26:47;4.35;;;3.60;;
65375;SDS011;51976;47.332;9.404;2023-06-19T00:29:12;4.28;;;3.88;;
65375;SDS011;51976;47.332;9.404;2023-06-19T00:31:38;4.57;;;3.88;;
65375;SDS011;51976;47.332;9.404;2023-06-19T00:34:04;5.03;;;4.22;;
65375;SDS011;51976;47.332;9.404;2023-06-19T00:36:29;5.10;;;3.97;;
65375;SDS011;51976;47.332;9.404;2023-06-19T00:38:55;4.88;;;3.88;;
65375;SDS011;51976;47.332;9.404;2023-06-19T00:41:21;6.00;;;4.38;;
65375;SDS011;51976;47.332;9.404;2023-06-19T00:43:47;7.03;;;4.03;;
65375;SDS011;51976;47.332;9.404;2023-06-19T00:46:13;4.43;;;3.67;;
65375;SDS011;51976;47.332;9.404;2023-06-19T00:48:38;5.00;;;3.55;;
65375;SDS011;51976;47.332;9.404;2023-06-19T00:51:04;4.32;;;3.88;;
65375;SDS011;51976;47.332;9.404;2023-06-19T00:53:30;4.25;;;3.70;;
65375;SDS011;51976;47.332;9.404;2023-06-19T00:55:57;4.80;;;3.95;;
65375;SDS011;51976;47.332;9.404;2023-06-19T00:58:24;4.13;;;3.72;;
65375;SDS011;51976;47.332;9.404;2023-06-19T01:00:50;4.93;;;3.90;;
65375;SDS011;51976;47.332;9.404;2023-06-19T01:03:16;4.88;;;3.88;;
65375;SDS011;51976;47.332;9.404;2023-06-19T01:05:41;6.40;;;4.07;;
65375;SDS011;51976;47.332;9.404;2023-06-19T01:08:31;4.88;;;3.90;;
65375;SDS011;51976;47.332;9.404;2023-06-19T01:11:02;3.95;;;3.50;;
65375;SDS011;51976;47.332;9.404;2023-06-19T01:13:37;5.25;;;3.75;;
65375;SDS011;51976;47.332;9.404;2023-06-19T01:16:09;5.63;;;3.75;;
65375;SDS011;51976;47.332;9.404;2023-06-19T01:18:36;6.93;;;4.28;;
65375;SDS011;51976;47.332;9.404;2023-06-19T01:21:11;4.13;;;3.67;;
65375;SDS011;51976;47.332;9.404;2023-06-19T01:23:37;4.18;;;3.70;;
65375;SDS011;51976;47.332;9.404;2023-06-19T01:26:02;4.68;;;3.83;;
65375;SDS011;51976;47.332;9.404;2023-06-19T01:28:28;5.13;;;3.90;;
65375;SDS011;51976;47.332;9.404;2023-06-19T01:30:53;5.03;;;4.07;;
65375;SDS011;51976;47.332;9.404;2023-06-19T01:33:23;5.15;;;3.90;;
65375;SDS011;51976;47.332;9.404;2023-06-19T01:35:51;5.10;;;4.38;;
65375;SDS011;51976;47.332;9.404;2023-06-19T01:38:18;5.85;;;3.88;;
65375;SDS011;51976;47.332;9.404;2023-06-19T01:40:46;5.40;;;3.95;;
65375;SDS011;51976;47.332;9.404;2023-06-19T01:43:13;5.13;;;3.80;;
65375;SDS011;51976;47.332;9.404;2023-06-19T01:45:40;4.85;;;3.78;;
65375;SDS011;51976;47.332;9.404;2023-06-19T01:48:07;5.00;;;3.85;;
65375;SDS011;51976;47.332;9.404;2023-06-19T01:50:33;4.50;;;3.40;;
65375;SDS011;51976;47.332;9.404;2023-06-19T01:52:58;5.25;;;4.00;;
65375;SDS011;51976;47.332;9.404;2023-06-19T01:55:24;4.90;;;4.22;;
65375;SDS011;51976;47.332;9.404;2023-06-19T01:57:49;5.85;;;4.20;;
65375;SDS011;51976;47.332;9.404;2023-06-19T02:00:15;5.18;;;4.35;;
65375;SDS011;51976;47.332;9.404;2023-06-19T02:02:40;5.13;;;4.07;;
65375;SDS011;51976;47.332;9.404;2023-06-19T02:05:06;5.35;;;3.60;;
65375;SDS011;51976;47.332;9.404;2023-06-19T02:07:32;4.93;;;4.10;;
65375;SDS011;51976;47.332;9.404;2023-06-19T02:09:57;5.75;;;3.80;;
65375;SDS011;51976;47.332;9.404;2023-06-19T02:12:22;5.82;;;5.05;;
65375;SDS011;51976;47.332;9.404;2023-06-19T02:14:48;6.38;;;4.25;;
65375;SDS011;51976;47.332;9.404;2023-06-19T02:17:13;5.22;;;3.97;;
65375;SDS011;51976;47.332;9.404;2023-06-19T02:19:39;5.72;;;4.45;;
65375;SDS011;51976;47.332;9.404;2023-06-19T02:22:04;5.20;;;4.15;;
65375;SDS011;51976;47.332;9.404;2023-06-19T02:24:31;6.63;;;3.92;;
65375;SDS011;51976;47.332;9.404;2023-06-19T02:26:56;7.53;;;4.20;;
65375;SDS011;51976;47.332;9.404;2023-06-19T02:29:22;4.95;;;3.88;;
65375;SDS011;51976;47.332;9.404;2023-06-19T02:31:47;4.85;;;3.42;;
65375;SDS011;51976;47.332;9.404;2023-06-19T02:34:13;4.78;;;3.88;;
65375;SDS011;51976;47.332;9.404;2023-06-19T02:36:38;4.28;;;3.88;;
65375;SDS011;51976;47.332;9.404;2023-06-19T02:39:04;4.45;;;3.78;;
65375;SDS011;51976;47.332;9.404;2023-06-19T02:41:31;5.97;;;3.92;;
65375;SDS011;51976;47.332;9.404;2023-06-19T02:43:56;5.82;;;4.72;;
65375;SDS011;51976;47.332;9.404;2023-06-19T02:46:22;4.38;;;3.88;;
65375;SDS011;51976;47.332;9.404;2023-06-19T02:48:47;4.28;;;3.67;;
65375;SDS011;51976;47.332;9.404;2023-06-19T02:51:13;4.68;;;3.50;;
65375;SDS011;51976;47.332;9.404;2023-06-19T02:53:38;7.50;;;4.15;;
65375;SDS011;51976;47.332;9.404;2023-06-19T02:56:04;5.13;;;3.60;;
65375;SDS011;51976;47.332;9.404;2023-06-19T02:58:30;4.78;;;3.95;;
65375;SDS011;51976;47.332;9.404;2023-06-19T03:00:55;4.57;;;3.72;;
65375;SDS011;51976;47.332;9.404;2023-06-19T03:03:21;4.93;;;4.05;;
65375;SDS011;51976;47.332;9.404;2023-06-19T03:05:47;4.43;;;3.83;;
65375;SDS011;51976;47.332;9.404;2023-06-19T03:08:13;4.35;;;3.78;;
65375;SDS011;51976;47.332;9.404;2023-06-19T03:10:38;7.82;;;4.15;;
65375;SDS011;51976;47.332;9.404;2023-06-19T03:13:04;4.47;;;3.47;;
65375;SDS011;51976;47.332;9.404;2023-06-19T03:15:29;5.43;;;4.57;;
65375;SDS011;51976;47.332;9.404;2023-06-19T03:17:54;6.43;;;4.25;;
65375;SDS011;51976;47.332;9.404;2023-06-19T03:20:20;5.97;;;4.28;;
65375;SDS011;51976;47.332;9.404;2023-06-19T03:22:45;8.95;;;4.38;;
65375;SDS011;51976;47.332;9.404;2023-06-19T03:25:11;6.13;;;4.57;;
65375;SDS011;51976;47.332;9.404;2023-06-19T03:27:37;6.72;;;4.03;;
65375;SDS011;51976;47.332;9.404;2023-06-19T03:30:03;5.43;;;4.72;;
65375;SDS011;51976;47.332;9.404;2023-06-19T03:32:33;4.53;;;4.10;;
65375;SDS011;51976;47.332;9.404;2023-06-19T03:34:58;5.65;;;4.43;;
65375;SDS011;51976;47.332;9.404;2023-06-19T03:37:24;4.93;;;4.15;;
65375;SDS011;51976;47.332;9.404;2023-06-19T03:39:50;5.47;;;4.40;;
65375;SDS011;51976;47.332;9.404;2023-06-19T03:42:15;4.60;;;4.05;;
65375;SDS011;51976;47.332;9.404;2023-06-19T03:44:41;7.55;;;4.60;;
65375;SDS011;51976;47.332;9.404;2023-06-19T03:47:06;6.38;;;4.47;;
65375;SDS011;51976;47.332;9.404;2023-06-19T03:49:32;6.57;;;5.15;;
65375;SDS011;51976;47.332;9.404;2023-06-19T03:51:57;10.80;;;4.78;;
65375;SDS011;51976;47.332;9.404;2023-06-19T03:54:23;6.18;;;4.80;;
65375;SDS011;51976;47.332;9.404;2023-06-19T03:56:48;9.77;;;6.88;;
65375;SDS011;51976;47.332;9.404;2023-06-19T03:59:13;11.32;;;7.28;;
65375;SDS011;51976;47.332;9.404;2023-06-19T04:01:39;13.05;;;7.75;;
65375;SDS011;51976;47.332;9.404;2023-06-19T04:04:05;8.45;;;6.28;;
65375;SDS011;51976;47.332;9.404;2023-06-19T04:06:31;8.13;;;5.75;;
65375;SDS011;51976;47.332;9.404;2023-06-19T04:08:56;6.35;;;5.32;;
65375;SDS011;51976;47.332;9.404;2023-06-19T04:11:22;5.68;;;4.55;;
65375;SDS011;51976;47.332;9.404;2023-06-19T04:13:47;5.88;;;4.72;;
65375;SDS011;51976;47.332;9.404;2023-06-19T04:16:13;6.15;;;5.13;;
65375;SDS011;51976;47.332;9.404;2023-06-19T04:18:38;6.60;;;4.75;;
65375;SDS011;51976;47.332;9.404;2023-06-19T04:21:03;6.88;;;5.28;;
65375;SDS011;51976;47.332;9.404;2023-06-19T04:23:29;6.80;;;5.13;;
65375;SDS011;51976;47.332;9.404;2023-06-19T04:25:54;6.20;;;4.85;;
65375;SDS011;51976;47.332;9.404;2023-06-19T04:28:20;12.02;;;5.35;;
65375;SDS011;51976;47.332;9.404;2023-06-19T04:30:45;6.20;;;4.60;;
65375;SDS011;51976;47.332;9.404;2023-06-19T04:33:11;8.65;;;5.45;;
65375;SDS011;51976;47.332;9.404;2023-06-19T04:35:36;6.32;;;4.97;;
65375;SDS011;51976;47.332;9.404;2023-06-19T04:38:05;6.80;;;5.30;;
65375;SDS011;51976;47.332;9.404;2023-06-19T04:40:31;8.18;;;5.35;;
65375;SDS011;51976;47.332;9.404;2023-06-19T04:42:57;7.93;;;5.35;;
65375;SDS011;51976;47.332;9.404;2023-06-19T04:45:22;7.05;;;5.40;;
65375;SDS011;51976;47.332;9.404;2023-06-19T04:47:48;10.90;;;5.32;;
65375;SDS011;51976;47.332;9.404;2023-06-19T04:50:13;7.47;;;4.85;;
65375;SDS011;51976;47.332;9.404;2023-06-19T04:52:40;8.65;;;5.80;;
65375;SDS011;51976;47.332;9.404;2023-06-19T04:55:06;8.15;;;5.38;;
65375;SDS011;51976;47.332;9.404;2023-06-19T04:57:34;7.93;;;5.28;;
65375;SDS011;51976;47.332;9.404;2023-06-19T05:00:02;12.75;;;6.00;;
65375;SDS011;51976;47.332;9.404;2023-06-19T05:02:35;8.27;;;5.45;;
65375;SDS011;51976;47.332;9.404;2023-06-19T05:05:01;7.28;;;5.25;;
65375;SDS011;51976;47.332;9.404;2023-06-19T05:07:31;7.70;;;5.20;;
65375;SDS011;51976;47.332;9.404;2023-06-19T05:09:56;7.22;;;5.28;;
65375;SDS011;51976;47.332;9.404;2023-06-19T05:12:22;7.20;;;5.35;;
65375;SDS011;51976;47.332;9.404;2023-06-19T05:14:47;5.43;;;4.80;;
65375;SDS011;51976;47.332;9.404;2023-06-19T05:17:12;7.75;;;5.43;;
65375;SDS011;51976;47.332;9.404;2023-06-19T05:19:38;6.72;;;5.50;;
65375;SDS011;51976;47.332;9.404;2023-06-19T05:22:03;8.30;;;5.45;;
65375;SDS011;51976;47.332;9.404;2023-06-19T05:24:29;7.18;;;5.60;;
65375;SDS011;51976;47.332;9.404;2023-06-19T05:26:54;6.38;;;5.43;;
65375;SDS011;51976;47.332;9.404;2023-06-19T05:29:23;7.28;;;5.35;;
65375;SDS011;51976;47.332;9.404;2023-06-19T05:31:48;5.65;;;5.05;;
65375;SDS011;51976;47.332;9.404;2023-06-19T05:34:14;6.85;;;5.78;;
65375;SDS011;51976;47.332;9.404;2023-06-19T05:36:39;7.57;;;5.43;;
65375;SDS011;51976;47.332;9.404;2023-06-19T05:39:04;7.05;;;5.18;;
65375;SDS011;51976;47.332;9.404;2023-06-19T05:41:30;7.28;;;5.13;;
65375;SDS011;51976;47.332;9.404;2023-06-19T05:43:56;6.82;;;5.63;;
65375;SDS011;51976;47.332;9.404;2023-06-19T05:46:21;7.60;;;5.60;;
65375;SDS011;51976;47.332;9.404;2023-06-19T05:48:47;7.22;;;5.47;;
65375;SDS011;51976;47.332;9.404;2023-06-19T05:51:13;7.47;;;5.43;;
65375;SDS011;51976;47.332;9.404;2023-06-19T05:53:39;7.90;;;5.82;;
65375;SDS011;51976;47.332;9.404;2023-06-19T05:56:05;7.85;;;6.10;;
65375;SDS011;51976;47.332;9.404;2023-06-19T05:58:30;9.25;;;5.28;;
65375;SDS011;51976;47.332;9.404;2023-06-19T06:00:56;8.00;;;6.15;;
65375;SDS011;51976;47.332;9.404;2023-06-19T06:03:23;8.27;;;6.95;;
65375;SDS011;51976;47.332;9.404;2023-06-19T06:05:50;7.97;;;5.80;;
65375;SDS011;51976;47.332;9.404;2023-06-19T06:08:16;7.05;;;6.05;;
65375;SDS011;51976;47.332;9.404;2023-06-19T06:10:41;10.45;;;6.63;;
65375;SDS011;51976;47.332;9.404;2023-06-19T06:13:07;7.35;;;6.28;;
65375;SDS011;51976;47.332;9.404;2023-06-19T06:15:32;8.75;;;5.80;;
65375;SDS011;51976;47.332;9.404;2023-06-19T06:17:59;8.57;;;6.47;;
65375;SDS011;51976;47.332;9.404;2023-06-19T06:20:24;9.40;;;6.28;;
65375;SDS011;51976;47.332;9.404;2023-06-19T06:22:50;7.65;;;6.43;;
65375;SDS011;51976;47.332;9.404;2023-06-19T06:25:15;16.42;;;6.60;;
65375;SDS011;51976;47.332;9.404;2023-06-19T06:27:41;8.40;;;7.00;;
65375;SDS011;51976;47.332;9.404;2023-06-19T06:30:07;7.85;;;6.22;;
65375;SDS011;51976;47.332;9.404;2023-06-19T06:32:33;8.40;;;6.93;;
65375;SDS011;51976;47.332;9.404;2023-06-19T06:34:59;8.95;;;6.00;;
65375;SDS011;51976;47.332;9.404;2023-06-19T06:37:24;8.05;;;5.30;;
65375;SDS011;51976;47.332;9.404;2023-06-19T06:39:51;7.18;;;5.88;;
65375;SDS011;51976;47.332;9.404;2023-06-19T06:42:17;7.63;;;5.88;;
65375;SDS011;51976;47.332;9.404;2023-06-19T06:44:44;10.68;;;5.93;;
65375;SDS011;51976;47.332;9.404;2023-06-19T06:47:10;10.25;;;6.43;;
65375;SDS011;51976;47.332;9.404;2023-06-19T06:49:37;9.63;;;6.25;;
65375;SDS011;51976;47.332;9.404;2023-06-19T06:52:04;6.40;;;5.22;;
65375;SDS011;51976;47.332;9.404;2023-06-19T06:54:31;8.18;;;5.80;;
65375;SDS011;51976;47.332;9.404;2023-06-19T06:56:56;5.75;;;5.25;;
65375;SDS011;51976;47.332;9.404;2023-06-19T06:59:23;11.05;;;5.43;;
65375;SDS011;51976;47.332;9.404;2023-06-19T07:01:49;5.55;;;4.95;;
65375;SDS011;51976;47.332;9.404;2023-06-19T07:04:15;5.75;;;4.82;;
65375;SDS011;51976;47.332;9.404;2023-06-19T07:06:41;4.63;;;4.15;;
65375;SDS011;51976;47.332;9.404;2023-06-19T07:09:07;5.32;;;4.82;;
65375;SDS011;51976;47.332;9.404;2023-06-19T07:11:32;4.63;;;4.18;;
65375;SDS011;51976;47.332;9.404;2023-06-19T07:13:58;4.40;;;3.42;;
65375;SDS011;51976;47.332;9.404;2023-06-19T07:16:23;8.50;;;4.78;;
65375;SDS011;51976;47.332;9.404;2023-06-19T07:18:49;6.38;;;4.10;;
65375;SDS011;51976;47.332;9.404;2023-06-19T07:21:14;5.30;;;3.90;;
65375;SDS011;51976;47.332;9.404;2023-06-19T07:23:40;5.43;;;4.07;;
65375;SDS011;51976;47.332;9.404;2023-06-19T07:26:07;4.78;;;4.28;;
65375;SDS011;51976;47.332;9.404;2023-06-19T07:28:35;4.90;;;4.20;;
65375;SDS011;51976;47.332;9.404;2023-06-19T07:31:02;5.97;;;4.32;;
65375;SDS011;51976;47.332;9.404;2023-06-19T07:33:28;8.05;;;5.22;;
65375;SDS011;51976;47.332;9.404;2023-06-19T07:35:54;7.57;;;5.85;;
65375;SDS011;51976;47.332;9.404;2023-06-19T07:38:20;6.75;;;5.50;;
65375;SDS011;51976;47.332;9.404;2023-06-19T07:40:46;6.38;;;5.68;;
65375;SDS011;51976;47.332;9.404;2023-06-19T07:43:11;6.63;;;5.85;;
65375;SDS011;51976;47.332;9.404;2023-06-19T07:45:38;5.88;;;5.25;;
65375;SDS011;51976;47.332;9.404;2023-06-19T07:48:04;6.47;;;5.50;;
65375;SDS011;51976;47.332;9.404;2023-06-19T07:50:30;8.02;;;5.45;;
65375;SDS011;51976;47.332;9.404;2023-06-19T07:52:57;7.20;;;6.03;;
65375;SDS011;51976;47.332;9.404;2023-06-19T07:55:23;8.60;;;7.05;;
65375;SDS011;51976;47.332;9.404;2023-06-19T07:57:48;7.72;;;6.22;;
65375;SDS011;51976;47.332;9.404;2023-06-19T08:00:14;7.70;;;5.80;;
65375;SDS011;51976;47.332;9.404;2023-06-19T08:02:40;6.43;;;5.15;;
65375;SDS011;51976;47.332;9.404;2023-06-19T08:05:07;6.45;;;4.63;;
65375;SDS011;51976;47.332;9.404;2023-06-19T08:07:33;5.40;;;4.88;;
65375;SDS011;51976;47.332;9.404;2023-06-19T08:09:59;5.40;;;4.90;;
65375;SDS011;51976;47.332;9.404;2023-06-19T08:12:25;5.30;;;4.80;;
65375;SDS011;51976;47.332;9.404;2023-06-19T08:14:51;5.05;;;4.55;;
65375;SDS011;51976;47.332;9.404;2023-06-19T08:17:17;6.35;;;5.15;;
65375;SDS011;51976;47.332;9.404;2023-06-19T08:19:42;5.13;;;4.63;;
65375;SDS011;51976;47.332;9.404;2023-06-19T08:22:08;8.60;;;5.10;;
65375;SDS011;51976;47.332;9.404;2023-06-19T08:24:34;8.50;;;4.53;;
65375;SDS011;51976;47.332;9.404;2023-06-19T08:27:05;5.22;;;4.55;;
65375;SDS011;51976;47.332;9.404;2023-06-19T08:29:30;5.93;;;4.22;;
65375;SDS011;51976;47.332;9.404;2023-06-19T08:31:56;5.18;;;4.50;;
65375;SDS011;51976;47.332;9.404;2023-06-19T08:34:21;5.25;;;4.40;;
65375;SDS011;51976;47.332;9.404;2023-06-19T08:36:46;5.28;;;4.78;;
65375;SDS011;51976;47.332;9.404;2023-06-19T08:39:12;5.32;;;4.70;;
65375;SDS011;51976;47.332;9.404;2023-06-19T08:41:37;5.88;;;4.53;;
65375;SDS011;51976;47.332;9.404;2023-06-19T08:44:06;5.53;;;4.68;;
65375;SDS011;51976;47.332;9.404;2023-06-19T08:46:33;5.47;;;4.50;;
65375;SDS011;51976;47.332;9.404;2023-06-19T08:49:02;7.03;;;4.38;;
65375;SDS011;51976;47.332;9.404;2023-06-19T08:51:31;6.97;;;4.38;;
65375;SDS011;51976;47.332;9.404;2023-06-19T08:54:01;6.68;;;4.90;;
65375;SDS011;51976;47.332;9.404;2023-06-19T08:56:32;5.90;;;4.45;;
65375;SDS011;51976;47.332;9.404;2023-06-19T08:59:08;5.32;;;4.22;;
65375;SDS011;51976;47.332;9.404;2023-06-19T09:01:35;4.93;;;4.43;;
65375;SDS011;51976;47.332;9.404;2023-06-19T09:04:07;4.45;;;4.05;;
65375;SDS011;51976;47.332;9.404;2023-06-19T09:06:50;5.82;;;4.57;;
65375;SDS011;51976;47.332;9.404;2023-06-19T09:09:17;4.88;;;4.38;;
65375;SDS011;51976;47.332;9.404;2023-06-19T09:12:04;4.05;;;3.65;;
65375;SDS011;51976;47.332;9.404;2023-06-19T09:14:36;6.50;;;4.63;;
65375;SDS011;51976;47.332;9.404;2023-06-19T09:17:04;4.53;;;4.13;;
65375;SDS011;51976;47.332;9.404;2023-06-19T09:19:32;5.68;;;4.55;;
65375;SDS011;51976;47.332;9.404;2023-06-19T09:22:02;7.13;;;4.60;;
65375;SDS011;51976;47.332;9.404;2023-06-19T09:24:33;5.00;;;4.50;;
65375;SDS011;51976;47.332;9.404;2023-06-19T09:27:10;4.75;;;3.92;;
65375;SDS011;51976;47.332;9.404;2023-06-19T09:29:39;5.30;;;3.95;;
65375;SDS011;51976;47.332;9.404;2023-06-19T09:32:21;5.70;;;4.40;;
65375;SDS011;51976;47.332;9.404;2023-06-19T09:34:48;5.05;;;3.95;;
65375;SDS011;51976;47.332;9.404;2023-06-19T09:37:20;6.35;;;4.45;;
65375;SDS011;51976;47.332;9.404;2023-06-19T09:39:49;15.10;;;4.85;;
65375;SDS011;51976;47.332;9.404;2023-06-19T09:42:20;6.88;;;4.70;;
65375;SDS011;51976;47.332;9.404;2023-06-19T09:44:51;5.32;;;3.85;;
65375;SDS011;51976;47.332;9.404;2023-06-19T09:47:23;4.53;;;3.72;;
65375;SDS011;51976;47.332;9.404;2023-06-19T09:49:55;4.53;;;4.13;;
65375;SDS011;51976;47.332;9.404;2023-06-19T09:52:22;4.57;;;4.10;;
65375;SDS011;51976;47.332;9.404;2023-06-19T09:54:51;5.57;;;4.90;;
65375;SDS011;51976;47.332;9.404;2023-06-19T09:57:18;5.65;;;4.68;;
65375;SDS011;51976;47.332;9.404;2023-06-19T09:59:53;7.53;;;5.18;;
65375;SDS011;51976;47.332;9.404;2023-06-19T10:02:21;6.00;;;4.63;;
65375;SDS011;51976;47.332;9.404;2023-06-19T10:04:51;5.55;;;5.05;;
65375;SDS011;51976;47.332;9.404;2023-06-19T10:07:22;5.85;;;5.28;;
65375;SDS011;51976;47.332;9.404;2023-06-19T10:09:55;7.60;;;5.65;;
65375;SDS011;51976;47.332;9.404;2023-06-19T10:12:21;6.78;;;5.20;;
65375;SDS011;51976;47.332;9.404;2023-06-19T10:14:47;7.65;;;5.18;;
65375;SDS011;51976;47.332;9.404;2023-06-19T10:17:16;5.75;;;5.22;;
65375;SDS011;51976;47.332;9.404;2023-06-19T10:19:49;6.13;;;5.43;;
65375;SDS011;51976;47.332;9.404;2023-06-19T10:22:21;4.95;;;4.43;;
65375;SDS011;51976;47.332;9.404;2023-06-19T10:24:49;5.65;;;5.07;;
65375;SDS011;51976;47.332;9.404;2023-06-19T10:27:20;6.00;;;4.93;;
65375;SDS011;51976;47.332;9.404;2023-06-19T10:29:51;5.65;;;4.28;;
65375;SDS011;51976;47.332;9.404;2023-06-19T10:32:17;5.65;;;4.57;;
65375;SDS011;51976;47.332;9.404;2023-06-19T10:34:45;4.70;;;4.05;;
65375;SDS011;51976;47.332;9.404;2023-06-19T10:37:17;6.20;;;4.20;;
65375;SDS011;51976;47.332;9.404;2023-06-19T10:39:42;5.15;;;4.28;;
65375;SDS011;51976;47.332;9.404;2023-06-19T10:42:09;6.40;;;5.13;;
65375;SDS011;51976;47.332;9.404;2023-06-19T10:44:35;4.63;;;4.22;;
65375;SDS011;51976;47.332;9.404;2023-06-19T10:47:02;5.00;;;4.50;;
65375;SDS011;51976;47.332;9.404;2023-06-19T10:49:27;7.32;;;5.03;;
65375;SDS011;51976;47.332;9.404;2023-06-19T10:51:53;4.70;;;4.20;;
65375;SDS011;51976;47.332;9.404;2023-06-19T10:54:24;6.15;;;5.50;;
65375;SDS011;51976;47.332;9.404;2023-06-19T10:56:49;5.32;;;4.25;;
65375;SDS011;51976;47.332;9.404;2023-06-19T10:59:16;5.82;;;5.22;;
65375;SDS011;51976;47.332;9.404;2023-06-19T11:01:44;9.60;;;6.60;;
65375;SDS011;51976;47.332;9.404;2023-06-19T11:04:11;10.18;;;5.25;;
65375;SDS011;51976;47.332;9.404;2023-06-19T11:06:38;4.97;;;4.30;;
65375;SDS011;51976;47.332;9.404;2023-06-19T11:09:05;6.35;;;5.05;;
65375;SDS011;51976;47.332;9.404;2023-06-19T11:11:39;5.80;;;4.20;;
65375;SDS011;51976;47.332;9.404;2023-06-19T11:14:09;5.13;;;4.03;;
65375;SDS011;51976;47.332;9.404;2023-06-19T11:16:37;5.55;;;4.78;;
65375;SDS011;51976;47.332;9.404;2023-06-19T11:19:06;5.40;;;4.90;;
65375;SDS011;51976;47.332;9.404;2023-06-19T11:21:33;4.68;;;3.83;;
65375;SDS011;51976;47.332;9.404;2023-06-19T11:24:00;5.72;;;4.45;;
65375;SDS011;51976;47.332;9.404;2023-06-19T11:26:26;8.30;;;4.63;;
65375;SDS011;51976;47.332;9.404;2023-06-19T11:28:51;9.45;;;5.57;;
65375;SDS011;51976;47.332;9.404;2023-06-19T11:31:17;12.70;;;5.32;;
65375;SDS011;51976;47.332;9.404;2023-06-19T11:33:55;5.15;;;4.65;;
65375;SDS011;51976;47.332;9.404;2023-06-19T11:36:23;4.72;;;4.22;;
65375;SDS011;51976;47.332;9.404;2023-06-19T11:38:50;5.30;;;4.55;;
65375;SDS011;51976;47.332;9.404;2023-06-19T11:41:24;7.80;;;4.47;;
65375;SDS011;51976;47.332;9.404;2023-06-19T11:43:57;5.45;;;4.60;;
65375;SDS011;51976;47.332;9.404;2023-06-19T11:46:27;5.00;;;4.55;;
65375;SDS011;51976;47.332;9.404;2023-06-19T11:48:54;5.95;;;4.70;;
65375;SDS011;51976;47.332;9.404;2023-06-19T11:51:21;4.78;;;3.95;;
65375;SDS011;51976;47.332;9.404;2023-06-19T11:53:47;4.13;;;3.53;;
65375;SDS011;51976;47.332;9.404;2023-06-19T11:56:12;4.15;;;3.75;;
65375;SDS011;51976;47.332;9.404;2023-06-19T11:58:37;5.28;;;4.78;;
65375;SDS011;51976;47.332;9.404;2023-06-19T12:01:03;4.32;;;3.92;;
65375;SDS011;51976;47.332;9.404;2023-06-19T12:03:28;4.20;;;3.80;;
65375;SDS011;51976;47.332;9.404;2023-06-19T12:05:54;4.10;;;3.70;;
65375;SDS011;51976;47.332;9.404;2023-06-19T12:08:19;3.95;;;3.17;;
65375;SDS011;51976;47.332;9.404;2023-06-19T12:10:45;6.45;;;3.60;;
65375;SDS011;51976;47.332;9.404;2023-06-19T12:13:10;4.18;;;3.78;;
65375;SDS011;51976;47.332;9.404;2023-06-19T12:15:36;5.32;;;3.38;;
65375;SDS011;51976;47.332;9.404;2023-06-19T12:18:01;4.10;;;3.30;;
65375;SDS011;51976;47.332;9.404;2023-06-19T12:20:28;4.75;;;3.50;;
65375;SDS011;51976;47.332;9.404;2023-06-19T12:22:53;6.35;;;4.07;;
65375;SDS011;51976;47.332;9.404;2023-06-19T12:25:19;5.75;;;4.03;;
65375;SDS011;51976;47.332;9.404;2023-06-19T12:27:45;4.50;;;3.75;;
65375;SDS011;51976;47.332;9.404;2023-06-19T12:30:11;5.45;;;3.95;;
65375;SDS011;51976;47.332;9.404;2023-06-19T12:32:36;4.22;;;3.70;;
65375;SDS011;51976;47.332;9.404;2023-06-19T12:35:02;4.45;;;4.05;;
65375;SDS011;51976;47.332;9.404;2023-06-19T12:37:28;4.13;;;3.72;;
65375;SDS011;51976;47.332;9.404;2023-06-19T12:39:53;5.15;;;4.28;;
65375;SDS011;51976;47.332;9.404;2023-06-19T12:42:18;7.28;;;3.85;;
65375;SDS011;51976;47.332;9.404;2023-06-19T12:44:44;5.90;;;4.05;;
65375;SDS011;51976;47.332;9.404;2023-06-19T12:47:10;4.35;;;3.95;;
65375;SDS011;51976;47.332;9.404;2023-06-19T12:49:36;4.15;;;3.40;;
65375;SDS011;51976;47.332;9.404;2023-06-19T12:52:02;5.25;;;3.67;;
65375;SDS011;51976;47.332;9.404;2023-06-19T12:54:27;6.45;;;3.90;;
65375;SDS011;51976;47.332;9.404;2023-06-19T12:56:53;3.00;;;2.70;;
65375;SDS011;51976;47.332;9.404;2023-06-19T12:59:18;3.53;;;2.60;;
65375;SDS011;51976;47.332;9.404;2023-06-19T13:01:44;5.57;;;2.78;;
65375;SDS011;51976;47.332;9.404;2023-06-19T13:04:10;4.85;;;2.80;;
65375;SDS011;51976;47.332;9.404;2023-06-19T13:06:37;3.05;;;2.80;;
65375;SDS011;51976;47.332;9.404;2023-06-19T13:09:02;3.90;;;3.13;;
65375;SDS011;51976;47.332;9.404;2023-06-19T13:11:30;5.03;;;3.13;;
65375;SDS011;51976;47.332;9.404;2023-06-19T13:13:55;3.78;;;2.97;;
65375;SDS011;51976;47.332;9.404;2023-06-19T13:16:21;6.03;;;3.20;;
65375;SDS011;51976;47.332;9.404;2023-06-19T13:18:49;5.40;;;3.42;;
65375;SDS011;51976;47.332;9.404;2023-06-19T13:21:14;3.33;;;3.03;;
65375;SDS011;51976;47.332;9.404;2023-06-19T13:23:40;3.88;;;2.92;;
65375;SDS011;51976;47.332;9.404;2023-06-19T13:26:06;4.25;;;2.97;;
65375;SDS011;51976;47.332;9.404;2023-06-19T13:28:32;3.60;;;2.97;;
65375;SDS011;51976;47.332;9.404;2023-06-19T13:30:57;3.50;;;3.13;;
65375;SDS011;51976;47.332;9.404;2023-06-19T13:33:24;4.90;;;4.35;;
65375;SDS011;51976;47.332;9.404;2023-06-19T13:35:50;6.03;;;4.35;;
65375;SDS011;51976;47.332;9.404;2023-06-19T13:38:16;4.03;;;3.63;;
65375;SDS011;51976;47.332;9.404;2023-06-19T13:40:42;5.20;;;3.70;;
65375;SDS011;51976;47.332;9.404;2023-06-19T13:43:07;3.35;;;3.05;;
65375;SDS011;51976;47.332;9.404;2023-06-19T13:45:33;3.17;;;2.80;;
65375;SDS011;51976;47.332;9.404;2023-06-19T13:47:59;5.63;;;3.40;;
65375;SDS011;51976;47.332;9.404;2023-06-19T13:50:25;4.38;;;3.95;;
65375;SDS011;51976;47.332;9.404;2023-06-19T13:52:51;3.50;;;3.20;;
65375;SDS011;51976;47.332;9.404;2023-06-19T13:55:16;4.78;;;3.92;;
65375;SDS011;51976;47.332;9.404;2023-06-19T13:57:43;4.43;;;3.28;;
65375;SDS011;51976;47.332;9.404;2023-06-19T14:00:09;4.57;;;3.13;;
65375;SDS011;51976;47.332;9.404;2023-06-19T14:02:37;4.30;;;3.22;;
65375;SDS011;51976;47.332;9.404;2023-06-19T14:05:04;5.53;;;3.38;;
65375;SDS011;51976;47.332;9.404;2023-06-19T14:07:31;5.95;;;4.05;;
65375;SDS011;51976;47.332;9.404;2023-06-19T14:09:56;3.60;;;3.30;;
65375;SDS011;51976;47.332;9.404;2023-06-19T14:12:22;4.20;;;3.65;;
65375;SDS011;51976;47.332;9.404;2023-06-19T14:14:47;4.25;;;3.70;;
65375;SDS011;51976;47.332;9.404;2023-06-19T14:17:13;3.30;;;3.00;;
65375;SDS011;51976;47.332;9.404;2023-06-19T14:19:39;4.90;;;3.58;;
65375;SDS011;51976;47.332;9.404;2023-06-19T14:22:04;4.25;;;3.80;;
65375;SDS011;51976;47.332;9.404;2023-06-19T14:24:29;5.22;;;3.53;;
65375;SDS011;51976;47.332;9.404;2023-06-19T14:26:55;4.30;;;3.90;;
65375;SDS011;51976;47.332;9.404;2023-06-19T14:29:20;3.83;;;3.42;;
65375;SDS011;51976;47.332;9.404;2023-06-19T14:31:46;4.55;;;3.75;;
65375;SDS011;51976;47.332;9.404;2023-06-19T14:34:11;4.00;;;3.60;;
65375;SDS011;51976;47.332;9.404;2023-06-19T14:36:37;4.45;;;3.80;;
65375;SDS011;51976;47.332;9.404;2023-06-19T14:39:03;5.68;;;4.63;;
65375;SDS011;51976;47.332;9.404;2023-06-19T14:41:29;5.47;;;4.55;;
65375;SDS011;51976;47.332;9.404;2023-06-19T14:43:54;4.47;;;4.07;;
65375;SDS011;51976;47.332;9.404;2023-06-19T14:46:20;5.25;;;4.75;;